Flight Track Log - Related Links

Times and Time Zones

All times are in EDT time to prevent confusion due to time zone crossing. See the N27XP flight status page for this flight to view local times or setup timezone preferences in your user account.


Time Position Orientation Groundspeed Altitude Reporting Facility
EDT Latitude Longitude Course Direction KTS MPH feet Rate Location/Type
Mon 05:08:25 PM 34.7147 -82.2875 150° Southeast 209 241 7,700  Level Atlanta Center
Mon 05:09:25 PM 34.6494 -82.2461 152° Southeast 244 281 10,300 2,600 Climbing Atlanta Center
Mon 05:10:25 PM 34.6086 -82.1711 123° Southeast 264 304 12,900 2,300 Climbing Atlanta Center
Mon 05:11:25 PM 34.6383 -82.0669 71° East 253 291 14,900 1,950 Climbing Atlanta Center
Mon 05:12:25 PM 34.6656 -81.9553 73° East 293 337 16,800 1,000 Climbing Atlanta Center
Mon 05:13:25 PM 34.6931 -81.8483 73° East 328 377 16,900 100 Climbing Atlanta Center
Mon 05:14:25 PM 34.7258 -81.7111 74° East 375 432 17,000  Climbing Atlanta Center
Mon 05:15:25 PM 34.7589 -81.5761 73° East 406 467 16,900 -50 Descending Atlanta Center
Mon 05:16:25 PM 34.7894 -81.4414 75° East 412 474 16,900  Level Atlanta Center
Mon 05:17:25 PM 34.8219 -81.3086 73° East 412 474 16,900 50 Level Atlanta Center
Mon 05:18:25 PM 34.8525 -81.1761 74° East 412 474 17,000 50 Climbing Atlanta Center
Mon 05:19:24 PM 34.8886 -81.0306 73° East 412 474 17,000 -100 Level Atlanta Center
Mon 05:19:25 PM 34.8864 -81.0281 137° Southeast 412 474 16,900  Descending Atlanta Center
Mon 05:20:07 PM 34.9131 -80.9283 72° East 413 475 17,000  Climbing Atlanta Center
Mon 05:20:25 PM 34.9183 -80.8928 80° East 407 468 16,900 -692 Descending Atlanta Center
Mon 05:21:25 PM 34.9506 -80.7597 74° East 407 468 16,100 -1,299 Descending Atlanta Center
Mon 05:22:02 PM 34.9711 -80.6728 74° East 413 475 14,800 -2,000 Descending Atlanta Center
Mon 05:22:25 PM 34.9822 -80.6242 74° East 407 468 14,100 -1,881 Descending Atlanta Center
Mon 05:23:09 PM 35.0028 -80.5344 74° East 388 447 12,700 -1,800 Descending Atlanta Center
Mon 05:23:25 PM 35.0100 -80.5011 75° East 397 457 12,300 -1,667 Descending Atlanta Center
Mon 05:24:03 PM 35.0289 -80.4269 73° East 359 413 11,200 -1,700 Descending Atlanta Center
Mon 05:24:25 PM 35.0378 -80.3833 76° East 375 432 10,600 -1,463 Descending Atlanta Center
Mon 05:25:25 PM 35.0639 -80.2731 74° East 351 404 9,200 -800 Descending Atlanta Center
Mon 05:26:25 PM 35.0856 -80.1706 75° East 327 376 9,000 -100 Descending Atlanta Center
Mon 05:27:25 PM 35.1075 -80.0706 75° East 313 360 9,000  Level Atlanta Center
Mon 05:28:25 PM 35.1258 -79.9936 74° East 300 345 9,000 -450 Level Atlanta Center
Mon 05:29:25 PM 35.1344 -79.8761 85° East 300 345 8,100 -1,050 Descending Atlanta Center
Mon 05:30:25 PM 35.1456 -79.7742 82° East 300 345 6,900 -1,200 Descending Atlanta Center
Mon 05:31:25 PM 35.1569 -79.6819 81° East 289 333 5,700 -700 Descending Atlanta Center
Mon 05:32:25 PM 35.1678 -79.5772 83° East 283 326 5,500 -200 Descending Atlanta Center

Login

Don't have an account? Register now (free) for customized features, flight alerts, and more!